VOE9TN LFRS-LFMN
Flight info
| Callsign | VOE9TN |
|---|---|
| Flight time | N/A |
| Altitude | 35000 |
| Route | LUGEN UM184 TUPAR DCT DIDRU DCT BEBIX/N0445F340 DCT VALKU/N0447F350 DCT LERGA DCT LIQID DCT LATAM DCT TUNUR DCT NISAR |
| Aircraft | A320/M-SDE3FGHIRWY/LB1 |
Departure
| Time | 2026-05-01 11:40 |
|---|---|
| Airport | Nantes Atlantique Airport (LFRS) |
Arrival
| Time | N/A |
|---|---|
| Airport | Nice-Côte d'Azur Airport (LFMN) |
| Time | Latitude | Longitude | Altitude | Speed | Heading |
|---|---|---|---|---|---|
| 2026-05-01 11:17 | 47.15714 | -1.60267 | 92 ft | 0 kts | 45° |
| 2026-05-01 11:34 | 47.15713 | -1.60268 | 90 ft | 2 kts | 45° |
| 2026-05-01 11:34 | 47.15694 | -1.60291 | 92 ft | 4 kts | 22° |
| 2026-05-01 11:35 | 47.15670 | -1.60296 | 92 ft | 4 kts | 342° |
| 2026-05-01 11:35 | 47.15653 | -1.60283 | 91 ft | 0 kts | 316° |
| 2026-05-01 11:37 | 47.15679 | -1.60342 | 90 ft | 12 kts | 295° |
| 2026-05-01 11:37 | 47.15766 | -1.60448 | 91 ft | 21 kts | 355° |
| 2026-05-01 11:37 | 47.15878 | -1.60376 | 91 ft | 22 kts | 27° |
| 2026-05-01 11:37 | 47.16021 | -1.60269 | 92 ft | 24 kts | 27° |
| 2026-05-01 11:38 | 47.16181 | -1.60148 | 91 ft | 22 kts | 27° |
| 2026-05-01 11:38 | 47.16261 | -1.60087 | 90 ft | 0 kts | 28° |
| 2026-05-01 11:38 | 47.16269 | -1.60081 | 90 ft | 6 kts | 28° |
| 2026-05-01 11:39 | 47.16365 | -1.60071 | 85 ft | 22 kts | 341° |
| 2026-05-01 11:39 | 47.16442 | -1.60193 | 87 ft | 21 kts | 245° |
| 2026-05-01 11:39 | 47.16302 | -1.60323 | 90 ft | 29 kts | 207° |
| 2026-05-01 11:39 | 47.15957 | -1.60586 | 86 ft | 91 kts | 207° |
| 2026-05-01 11:40 | 47.15213 | -1.61153 | 87 ft | 148 kts | 207° |
| 2026-05-01 11:40 | 47.14194 | -1.61878 | 412 ft | 165 kts | 204° |
| 2026-05-01 11:40 | 47.13166 | -1.62607 | 1099 ft | 164 kts | 207° |
| 2026-05-01 11:40 | 47.12152 | -1.63374 | 1814 ft | 164 kts | 202° |
| 2026-05-01 11:41 | 47.10982 | -1.63510 | 2196 ft | 182 kts | 162° |
| 2026-05-01 11:41 | 47.09909 | -1.62385 | 2461 ft | 205 kts | 124° |
| 2026-05-01 11:41 | 47.09350 | -1.60364 | 2808 ft | 225 kts | 108° |
| 2026-05-01 11:41 | 47.08860 | -1.58083 | 3271 ft | 242 kts | 107° |
| 2026-05-01 11:42 | 47.08340 | -1.55650 | 3782 ft | 261 kts | 107° |
| 2026-05-01 11:42 | 47.07787 | -1.53083 | 4567 ft | 267 kts | 108° |
| 2026-05-01 11:42 | 47.07206 | -1.50465 | 5393 ft | 272 kts | 112° |
| 2026-05-01 11:42 | 47.06186 | -1.48122 | 6211 ft | 275 kts | 136° |
| 2026-05-01 11:43 | 47.04763 | -1.46236 | 7056 ft | 277 kts | 139° |
| 2026-05-01 11:43 | 47.03317 | -1.44360 | 7910 ft | 278 kts | 139° |
| 2026-05-01 11:43 | 47.01867 | -1.42474 | 8754 ft | 280 kts | 139° |
| 2026-05-01 11:44 | 46.98944 | -1.38664 | 10408 ft | 284 kts | 139° |
| 2026-05-01 11:44 | 46.97443 | -1.36706 | 10772 ft | 303 kts | 139° |
| 2026-05-01 11:44 | 46.95809 | -1.34580 | 10972 ft | 326 kts | 139° |
| 2026-05-01 11:44 | 46.94066 | -1.32317 | 11325 ft | 341 kts | 139° |
| 2026-05-01 11:45 | 46.92272 | -1.29985 | 11963 ft | 346 kts | 139° |
| 2026-05-01 11:45 | 46.90459 | -1.27631 | 12636 ft | 350 kts | 139° |
| 2026-05-01 11:45 | 46.88624 | -1.25249 | 13314 ft | 354 kts | 139° |
| 2026-05-01 11:45 | 46.86768 | -1.22843 | 13980 ft | 359 kts | 139° |
| 2026-05-01 11:46 | 46.84891 | -1.20411 | 14577 ft | 362 kts | 139° |
| 2026-05-01 11:46 | 46.82993 | -1.17954 | 15168 ft | 366 kts | 139° |
| 2026-05-01 11:46 | 46.81099 | -1.15496 | 15750 ft | 369 kts | 139° |
| 2026-05-01 11:46 | 46.79172 | -1.12996 | 16323 ft | 373 kts | 139° |
| 2026-05-01 11:47 | 46.77219 | -1.10461 | 16898 ft | 377 kts | 139° |
| 2026-05-01 11:47 | 46.75246 | -1.07902 | 17465 ft | 381 kts | 139° |
| 2026-05-01 11:47 | 46.73256 | -1.05322 | 18034 ft | 385 kts | 139° |
| 2026-05-01 11:47 | 46.71242 | -1.02722 | 18592 ft | 389 kts | 139° |
| 2026-05-01 11:48 | 46.69208 | -1.00100 | 19075 ft | 392 kts | 139° |
| 2026-05-01 11:48 | 46.67157 | -0.97457 | 19589 ft | 395 kts | 139° |
| 2026-05-01 11:48 | 46.65088 | -0.94792 | 20101 ft | 398 kts | 139° |
| 2026-05-01 11:48 | 46.63000 | -0.92109 | 20621 ft | 401 kts | 139° |
| 2026-05-01 11:49 | 46.60900 | -0.89412 | 21127 ft | 404 kts | 139° |
| 2026-05-01 11:49 | 46.58786 | -0.86697 | 21607 ft | 407 kts | 139° |
| 2026-05-01 11:49 | 46.56664 | -0.83972 | 22096 ft | 409 kts | 139° |
| 2026-05-01 11:49 | 46.54533 | -0.81195 | 22593 ft | 412 kts | 139° |
| 2026-05-01 11:50 | 46.52439 | -0.78342 | 23186 ft | 413 kts | 136° |
| 2026-05-01 11:50 | 46.50480 | -0.75312 | 23860 ft | 411 kts | 131° |
| 2026-05-01 11:50 | 46.48781 | -0.71991 | 24466 ft | 408 kts | 123° |
| 2026-05-01 11:50 | 46.47254 | -0.68558 | 25167 ft | 402 kts | 125° |
| 2026-05-01 11:51 | 46.45689 | -0.65223 | 25835 ft | 397 kts | 126° |
| 2026-05-01 11:51 | 46.44135 | -0.61962 | 26549 ft | 390 kts | 126° |
| 2026-05-01 11:51 | 46.42598 | -0.58761 | 27272 ft | 383 kts | 126° |
| 2026-05-01 11:51 | 46.41086 | -0.55616 | 27997 ft | 376 kts | 126° |
| 2026-05-01 11:52 | 46.39615 | -0.52527 | 28711 ft | 368 kts | 126° |
| 2026-05-01 11:52 | 46.38174 | -0.49512 | 29416 ft | 359 kts | 130° |
| 2026-05-01 11:52 | 46.36491 | -0.46950 | 29715 ft | 359 kts | 143° |
| 2026-05-01 11:52 | 46.34362 | -0.44896 | 29312 ft | 377 kts | 158° |
| 2026-05-01 11:53 | 46.31840 | -0.43591 | 28968 ft | 395 kts | 169° |
| 2026-05-01 11:53 | 46.29072 | -0.42844 | 28561 ft | 414 kts | 176° |
| 2026-05-01 11:53 | 46.26129 | -0.42505 | 27996 ft | 437 kts | 180° |
| 2026-05-01 11:53 | 46.23014 | -0.42496 | 27425 ft | 457 kts | 184° |
| 2026-05-01 11:54 | 46.19786 | -0.42787 | 26973 ft | 471 kts | 190° |
| 2026-05-01 11:54 | 46.16724 | -0.44360 | 26897 ft | 469 kts | 211° |
| 2026-05-01 11:54 | 46.14048 | -0.46983 | 27261 ft | 461 kts | 223° |
| 2026-05-01 11:54 | 46.11916 | -0.50407 | 27360 ft | 461 kts | 235° |
| 2026-05-01 11:55 | 46.10330 | -0.54412 | 27150 ft | 466 kts | 249° |
| 2026-05-01 11:55 | 46.09488 | -0.58982 | 26587 ft | 478 kts | 261° |
| 2026-05-01 11:55 | 46.09138 | -0.63820 | 25916 ft | 481 kts | 265° |
| 2026-05-01 11:55 | 46.08749 | -0.68404 | 26414 ft | 437 kts | 255° |
| 2026-05-01 11:56 | 46.07666 | -0.72184 | 28124 ft | 394 kts | 245° |
| 2026-05-01 11:56 | 46.06699 | -0.75852 | 27770 ft | 394 kts | 259° |
| 2026-05-01 11:56 | 46.06572 | -0.79763 | 27341 ft | 387 kts | 276° |
| 2026-05-01 11:56 | 46.07214 | -0.83464 | 27207 ft | 377 kts | 292° |
| 2026-05-01 11:57 | 46.08447 | -0.86732 | 27030 ft | 368 kts | 299° |
| 2026-05-01 11:57 | 46.09323 | -0.88802 | 26807 ft | 364 kts | 300° |
| 2026-05-01 11:57 | 46.11071 | -0.92895 | 26266 ft | 360 kts | 300° |
| 2026-05-01 11:57 | 46.12387 | -0.95952 | 25853 ft | 357 kts | 300° |
| 2026-05-01 11:58 | 46.13693 | -0.98986 | 25416 ft | 355 kts | 300° |
| 2026-05-01 11:58 | 46.14987 | -1.02005 | 24998 ft | 353 kts | 300° |
| 2026-05-01 11:58 | 46.17545 | -1.08009 | 24165 ft | 349 kts | 300° |
| 2026-05-01 11:59 | 46.18815 | -1.11006 | 23739 ft | 348 kts | 300° |
| 2026-05-01 11:59 | 46.20071 | -1.13973 | 23259 ft | 346 kts | 300° |
| 2026-05-01 11:59 | 46.21324 | -1.16928 | 22802 ft | 344 kts | 300° |
| 2026-05-01 12:00 | 46.23805 | -1.22803 | 21878 ft | 342 kts | 300° |
| 2026-05-01 12:00 | 46.25037 | -1.25728 | 21449 ft | 340 kts | 300° |
| 2026-05-01 12:00 | 46.27489 | -1.31533 | 20642 ft | 337 kts | 300° |
| 2026-05-01 12:01 | 46.28297 | -1.33445 | 20379 ft | 336 kts | 300° |
| 2026-05-01 12:01 | 46.29506 | -1.36319 | 19989 ft | 334 kts | 300° |
| 2026-05-01 12:01 | 46.30709 | -1.39184 | 19606 ft | 332 kts | 300° |
| 2026-05-01 12:01 | 46.31906 | -1.42038 | 19229 ft | 331 kts | 300° |
| 2026-05-01 12:02 | 46.33096 | -1.44877 | 18869 ft | 329 kts | 300° |
| 2026-05-01 12:02 | 46.34666 | -1.48622 | 18367 ft | 328 kts | 300° |
| 2026-05-01 12:02 | 46.35463 | -1.50528 | 18100 ft | 326 kts | 300° |
| 2026-05-01 12:02 | 46.36633 | -1.53326 | 17711 ft | 325 kts | 300° |
| 2026-05-01 12:03 | 46.37787 | -1.56088 | 17322 ft | 324 kts | 300° |
| 2026-05-01 12:03 | 46.38961 | -1.58907 | 16945 ft | 322 kts | 300° |
| 2026-05-01 12:03 | 46.40100 | -1.61638 | 16597 ft | 320 kts | 300° |
| 2026-05-01 12:03 | 46.41249 | -1.64395 | 16253 ft | 318 kts | 300° |
| 2026-05-01 12:04 | 46.42388 | -1.67131 | 15910 ft | 317 kts | 300° |
| 2026-05-01 12:04 | 46.43521 | -1.69861 | 15568 ft | 315 kts | 300° |
| 2026-05-01 12:04 | 46.44645 | -1.72577 | 15236 ft | 313 kts | 300° |
| 2026-05-01 12:04 | 46.45770 | -1.75291 | 14908 ft | 312 kts | 300° |
| 2026-05-01 12:05 | 46.46887 | -1.77977 | 14583 ft | 310 kts | 300° |
| 2026-05-01 12:05 | 46.49102 | -1.83322 | 13930 ft | 308 kts | 300° |
| 2026-05-01 12:05 | 46.50196 | -1.85979 | 13579 ft | 306 kts | 300° |
| 2026-05-01 12:06 | 46.51285 | -1.88620 | 13225 ft | 304 kts | 300° |
| 2026-05-01 12:06 | 46.52369 | -1.91251 | 12876 ft | 302 kts | 300° |
| 2026-05-01 12:06 | 46.53447 | -1.93862 | 12528 ft | 301 kts | 300° |
| 2026-05-01 12:06 | 46.54518 | -1.96461 | 12182 ft | 299 kts | 300° |
| 2026-05-01 12:07 | 46.55583 | -1.99048 | 11829 ft | 298 kts | 300° |
| 2026-05-01 12:07 | 46.56642 | -2.01632 | 11460 ft | 297 kts | 300° |
| 2026-05-01 12:07 | 46.57694 | -2.04201 | 11181 ft | 294 kts | 300° |
| 2026-05-01 12:07 | 46.58734 | -2.06740 | 10853 ft | 291 kts | 300° |
| 2026-05-01 12:08 | 46.59754 | -2.09231 | 10527 ft | 289 kts | 300° |
| 2026-05-01 12:08 | 46.60778 | -2.11732 | 10209 ft | 287 kts | 300° |
| 2026-05-01 12:08 | 46.61797 | -2.14223 | 9846 ft | 285 kts | 300° |
| 2026-05-01 12:08 | 46.62810 | -2.16702 | 9463 ft | 284 kts | 300° |
| 2026-05-01 12:09 | 46.63814 | -2.19164 | 9082 ft | 282 kts | 300° |
| 2026-05-01 12:09 | 46.64813 | -2.21613 | 8690 ft | 281 kts | 300° |
| 2026-05-01 12:09 | 46.65806 | -2.24048 | 8297 ft | 279 kts | 300° |
| 2026-05-01 12:09 | 46.66794 | -2.26476 | 7910 ft | 278 kts | 300° |
| 2026-05-01 12:10 | 46.67776 | -2.28894 | 7531 ft | 276 kts | 300° |
| 2026-05-01 12:10 | 46.70231 | -2.33073 | 6760 ft | 274 kts | 329° |
| 2026-05-01 12:10 | 46.72006 | -2.34058 | 6371 ft | 274 kts | 349° |
| 2026-05-01 12:11 | 46.75686 | -2.33200 | 5552 ft | 272 kts | 30° |
| 2026-05-01 12:11 | 46.77146 | -2.31481 | 5153 ft | 270 kts | 49° |